CheckWX is a tool to help pilots better visualize weather data.  It is not intended as a substitute for an official pre-flight weather briefing.

17:09:05 UTC

GQPA METAR
Atar International Airport
Atar, Mauritania
Current

5 hours ago

GQPA 211200Z 36010KT 8000 NSC 37/13 Q1015
Observed
Jul-21 @ 12:00 UTC
Wind
  • 360° at 10 KTS
Visibility
8,000 meters
Flight Rules
MVFR
Cloud Levels
  • Clear skies
Temperature
37°C / 99°F
Dewpoint
13°C / 55°F
Humidity
24%
Altimeter
29.97" Hg
Pressure
1014.92 hPa
Previous

8 hours ago

GQPA 210900Z 02008KT 6000 NSC 34/12 Q1015
Observed
Jul-21 @ 09:00 UTC
Wind
  • 020° at 8 KTS
Visibility
6,000 meters
Flight Rules
MVFR
Cloud Levels
  • Clear skies
Temperature
34°C / 93°F
Dewpoint
12°C / 54°F
Humidity
26%
Altimeter
29.97" Hg
Pressure
1014.92 hPa